To NAV CANADA Home Page Login to a new session Search on AWWS site Feedback and Comments Disclaimer Vers la page française équivalente Tips FAQ What's new on the site To the Forecasts and Observations / NOTAM section To "File a Flight Plan" website Publications and other links Update of the User's profile FIC Telephone Numbers My Weather Data Folder Route Weather Data Regional Weather Data Local Weather Data To the Forecasts and Observations / NOTAM section
Request Generated 01/21/2017 at 02:01:59 UTC . Weather information available at that time is displayed.

METAR/TAF

EARLTON/EARLTON (TIMISKAMING REGIONAL)/ON    (show WxCam)

METAR CYXR 210100Z AUTO 19009KT 9SM OVC012 00/M01 A2972 RMK SLP078=
METAR CYXR 210000Z AUTO 18008KT 9SM OVC012 00/M01 A2973 RMK SLP080=
METAR CYXR 202300Z AUTO 19008KT 9SM OVC012 01/M01 A2972 RMK SLP077=

*** REMARK        : Forecast period has ended; this was the last TAF issued
*** REMARQUE : La période de prévision est échue; ceci était le dernier TAF qui a été émis
TAF CYXR 201738Z 2018/2101 20008KT 5SM BR OVC006 TEMPO 2018/2101 P6SM
NSW OVC010
RMK FCST BASED ON AUTO OBS. NXT FCST WILL BE ISSUED AT 211245Z=
Your time UTC time
Weather data provided by Environment Canada and NAV CANADA